Kamo, Armenia

3:03 AM +04 on December 03, 2016 (GMT +0400)
Zvartnots | | Change Station

Elev 2838 ft 40.15 °N, 44.40 °E | Updated 33 minutes ago

Scattered Clouds
Scattered Clouds
39 °F
Feels Like 39 °F
N
1
Wind Variable Wind from Variable

Today
High -- | Low -- °F
--% Chance of Precip.
Yesterday
High -- | Low -- °F
Precip. -- in
Pressure 29.74 in
Visibility 6.2 miles
Clouds Scattered Clouds 4600 ft
Dew Point 34 °F
Humidity 81%
Rainfall 0.00 in
Snow Depth Not available.
8:05 AM 5:33 PM
Waxing Crescent, 11% visible
METAR UDYZ 022230Z VRB01KT 9999 SCT046 04/01 Q1007 WS R09 R09/290060 NOSIG
Pressure 29.74 in
Visibility 6.2 miles
Clouds Scattered Clouds 4600 ft
Dew Point 34 °F
Humidity 81%
Rainfall 0.00 in
Snow Depth Not available.
8:05 AM 5:33 PM
Waxing Crescent, 11% visible
METAR UDYZ 022230Z VRB01KT 9999 SCT046 04/01 Q1007 WS R09 R09/290060 NOSIG

10-Day Weather Forecast

×

Almanac

Astronomy

Dec. 03, 2016 Rise Set
Actual Time
Civil Twilight
Nautical Twilight
Astronomical Twilight
Moon
Length of Visible Light
Length of Day
Tomorrow will be .
, % of the Moon is Illuminated

Today's Extremes

Country Highs Country Lows

Community

WunderPhotos

Upload Photos

1,955,375 photos uploaded!

WunderBlog® & News

Nearby

Air Quality

  Air Quality AQ Index Pollutant
Not available.

Snow Depth

Station Depth Elevation

Earthquake Activity

City Distance Mag. Time & Date
Minimum magnitude displayed is 2.5.

Coastal Water Temperatures

Place Temperature

Stations

Nearby Weather Stations

Station Location Temp. Windchill Dew Point Humidity Wind Precip. Elev Updated Type